Time;durP1;ratioP1;P1;durP2;ratioP2;P2;SDS_P1;SDS_P2;PMS_P1;PMS_P2;Temp;Humidity;BMP_temperature;BMP_pressure;BME280_temperature;BME280_humidity;BME280_pressure;Samples;Min_cycle;Max_cycle;Signal;HPM_P1;HPM_P2
2022/09/05 00:01:32;;;;;;;3.55;1.40;;;;;;;;;;5040204;28;20080;-64
2022/09/05 00:04:08;;;;;;;4.68;1.90;;;;;;;;;;5024112;28;20064;-69
2022/09/05 00:06:37;;;;;;;5.65;1.48;;;;;;;;;;5024314;28;20037;-64
2022/09/05 00:09:03;;;;;;;;;;;;;;;;;;5023470;28;20512;-66
2022/09/05 00:11:29;;;;;;;;;;;;;;;;;;5024620;28;19950;-68
2022/09/05 00:13:55;;;;;;;;;;;;;;;;;;5024465;28;19962;-67
2022/09/05 00:16:21;;;;;;;;;;;;;;;;;;5025104;28;20372;-67
2022/09/05 00:18:47;;;;;;;;;;;;;;;;;;5044760;28;19912;-67
2022/09/05 00:21:13;;;;;;;;;;;;;;;;;;5045298;28;19909;-68
2022/09/05 00:23:38;;;;;;;;;;;;;;;;;;5044946;28;20336;-69
2022/09/05 00:26:04;;;;;;;;;;;;;;;;;;5043630;28;20395;-67
2022/09/05 00:28:30;;;;;;;;;;;;;;;;;;5042316;28;19909;-67
2022/09/05 00:30:57;;;;;;;;;;;;;;;;;;5044064;28;20288;-71
2022/09/05 00:33:23;;;;;;;;;;;;;;;;;;5045885;28;20330;-67
2022/09/05 00:35:49;;;;;;;;;;;;;;;;;;5048735;28;19905;-67
2022/09/05 00:38:16;;;;;;;;;;;;;;;;;;5048934;28;19958;-67
2022/09/05 00:40:42;;;;;;;;;;;;;;;;;;5048933;28;19916;-67
2022/09/05 00:43:08;;;;;;;;;;;;;;;;;;5048052;28;19986;-66
2022/09/05 00:45:34;;;;;;;;;;;;;;;;;;5047323;28;20300;-67
2022/09/05 00:48:00;;;;;;;;;;;;;;;;;;5047715;28;19935;-66
2022/09/05 00:50:25;;;;;;;;;;;;;;;;;;5048494;28;20370;-67
2022/09/05 00:52:56;;;;;;;;;;;;;;;;;;5046623;28;19918;-67
2022/09/05 00:55:21;;;;;;;;;;;;;;;;;;5047434;28;20407;-67
2022/09/05 00:57:48;;;;;;;;;;;;;;;;;;5046839;28;19947;-65
2022/09/05 01:00:14;;;;;;;;;;;;;;;;;;5048558;28;19913;-67
2022/09/05 01:02:40;;;;;;;;;;;;;;;;;;5046066;28;19915;-66
2022/09/05 01:05:06;;;;;;;;;;;;;;;;;;5045829;28;19908;-67
2022/09/05 01:07:32;;;;;;;;;;;;;;;;;;5046798;28;19909;-68
2022/09/05 01:10:02;;;;;;;;;;;;;;;;;;5049144;28;19912;-66
2022/09/05 01:12:28;;;;;;;;;;;;;;;;;;5049893;28;20003;-68
2022/09/05 01:14:54;;;;;;;;;;;;;;;;;;5049836;28;19968;-68
2022/09/05 01:17:20;;;;;;;;;;;;;;;;;;5049555;28;19959;-67
2022/09/05 01:19:46;;;;;;;;;;;;;;;;;;5050068;28;19931;-66
2022/09/05 01:22:12;;;;;;;;;;;;;;;;;;5050512;28;19905;-70
2022/09/05 01:24:38;;;;;;;;;;;;;;;;;;5048816;28;19922;-67
2022/09/05 01:27:04;;;;;;;;;;;;;;;;;;5049430;28;19909;-69
2022/09/05 01:29:30;;;;;;;;;;;;;;;;;;5049359;28;20292;-68
2022/09/05 01:31:56;;;;;;;;;;;;;;;;;;5049059;28;19909;-67
2022/09/05 01:34:22;;;;;;;;;;;;;;;;;;5048992;28;19908;-70
2022/09/05 01:36:48;;;;;;;;;;;;;;;;;;5048897;28;19905;-68
2022/09/05 01:39:14;;;;;;;;;;;;;;;;;;5050063;28;19912;-66
2022/09/05 01:41:40;;;;;;;;;;;;;;;;;;5049387;28;20009;-67
2022/09/05 01:44:05;;;;;;;;;;;;;;;;;;5047895;28;19913;-69
2022/09/05 01:46:33;;;;;;;;;;;;;;;;;;5049085;28;19911;-67
2022/09/05 01:48:59;;;;;;;;;;;;;;;;;;5048888;28;19908;-69
2022/09/05 01:51:25;;;;;;;;;;;;;;;;;;5049450;28;19946;-67
2022/09/05 01:53:51;;;;;;;;;;;;;;;;;;5049007;28;19909;-68
2022/09/05 01:56:17;;;;;;;;;;;;;;;;;;5049776;28;19958;-67
2022/09/05 01:58:43;;;;;;;;;;;;;;;;;;5048702;28;19955;-67
2022/09/05 02:01:09;;;;;;;;;;;;;;;;;;5049004;28;19994;-67
2022/09/05 02:03:35;;;;;;;;;;;;;;;;;;5049055;28;19936;-67
2022/09/05 02:06:01;;;;;;;;;;;;;;;;;;5048381;28;19912;-68
2022/09/05 02:08:27;;;;;;;;;;;;;;;;;;5049219;28;19909;-67
2022/09/05 02:10:53;;;;;;;;;;;;;;;;;;5049030;28;19911;-67
2022/09/05 02:13:18;;;;;;;;;;;;;;;;;;5048797;28;20018;-68
2022/09/05 02:15:45;;;;;;;;;;;;;;;;;;5047741;28;19905;-67
2022/09/05 02:18:11;;;;;;;;;;;;;;;;;;5049355;28;19905;-67
2022/09/05 02:20:37;;;;;;;;;;;;;;;;;;5047338;28;19908;-68
2022/09/05 02:23:03;;;;;;;;;;;;;;;;;;5048311;28;19909;-67
2022/09/05 02:25:29;;;;;;;;;;;;;;;;;;5048362;28;19914;-67
2022/09/05 02:27:55;;;;;;;;;;;;;;;;;;5047960;28;20015;-67
2022/09/05 02:30:21;;;;;;;;;;;;;;;;;;5048695;28;19904;-68
2022/09/05 02:32:48;;;;;;;;;;;;;;;;;;5047793;28;19935;-67
2022/09/05 02:35:14;;;;;;;;;;;;;;;;;;5047213;28;20706;-67
2022/09/05 02:37:39;;;;;;;;;;;;;;;;;;5047975;28;19905;-67
2022/09/05 02:40:05;;;;;;;;;;;;;;;;;;5048126;28;19904;-68
2022/09/05 02:42:31;;;;;;;;;;;;;;;;;;5048094;28;19950;-67
2022/09/05 02:44:58;;;;;;;;;;;;;;;;;;5047096;28;19991;-68
2022/09/05 02:47:23;;;;;;;;;;;;;;;;;;5047924;28;19920;-67
2022/09/05 02:49:49;;;;;;;;;;;;;;;;;;5048353;28;19991;-68
2022/09/05 02:52:15;;;;;;;;;;;;;;;;;;5047643;28;19913;-68
2022/09/05 02:54:41;;;;;;;;;;;;;;;;;;5047445;28;19947;-67
2022/09/05 02:57:07;;;;;;;;;;;;;;;;;;5047618;28;20007;-67
2022/09/05 02:59:33;;;;;;;;;;;;;;;;;;5047372;28;19913;-67
2022/09/05 03:01:59;;;;;;;;;;;;;;;;;;5046600;28;19912;-68
2022/09/05 03:04:25;;;;;;;;;;;;;;;;;;5046738;28;19954;-68
2022/09/05 03:06:51;;;;;;;;;;;;;;;;;;5048044;28;19904;-68
2022/09/05 03:09:17;;;;;;;;;;;;;;;;;;5047846;28;19905;-67
2022/09/05 03:11:43;;;;;;;;;;;;;;;;;;5047209;28;19975;-68
2022/09/05 03:14:11;;;;;;;;;;;;;;;;;;5047473;28;20003;-68
2022/09/05 03:16:37;;;;;;;;;;;;;;;;;;5047239;28;19974;-68
2022/09/05 03:19:03;;;;;;;;;;;;;;;;;;5046258;28;20445;-67
2022/09/05 03:21:29;;;;;;;;;;;;;;;;;;5047256;28;19926;-67
2022/09/05 03:23:55;;;;;;;;;;;;;;;;;;5044755;28;19909;-67
2022/09/05 03:26:21;;;;;;;;;;;;;;;;;;5047610;28;19940;-67
2022/09/05 03:28:47;;;;;;;;;;;;;;;;;;5046844;28;19904;-67
2022/09/05 03:31:13;;;;;;;;;;;;;;;;;;5046949;28;19909;-67
2022/09/05 03:33:39;;;;;;;;;;;;;;;;;;5046768;28;19912;-68
2022/09/05 03:36:08;;;;;;;;;;;;;;;;;;5047064;28;19966;-67
2022/09/05 03:38:34;;;;;;;;;;;;;;;;;;5046234;28;19913;-67
2022/09/05 03:41:00;;;;;;;;;;;;;;;;;;5046705;28;19915;-67
2022/09/05 03:43:28;;;;;;;;;;;;;;;;;;5046648;28;19923;-67
2022/09/05 03:45:54;;;;;;;;;;;;;;;;;;5046504;28;19928;-67
2022/09/05 03:48:20;;;;;;;;;;;;;;;;;;5046748;28;20434;-68
2022/09/05 03:50:46;;;;;;;;;;;;;;;;;;5045436;28;19909;-68
2022/09/05 03:53:12;;;;;;;;;;;;;;;;;;5046708;28;19939;-67
2022/09/05 03:55:38;;;;;;;;;;;;;;;;;;5046490;28;19927;-67
2022/09/05 03:58:04;;;;;;;;;;;;;;;;;;5046565;28;19909;-67
2022/09/05 04:00:32;;;;;;;;;;;;;;;;;;5046149;28;19909;-67
2022/09/05 04:02:58;;;;;;;;;;;;;;;;;;5046239;28;19904;-67
2022/09/05 04:05:24;;;;;;;;;;;;;;;;;;5045735;28;19913;-67
2022/09/05 04:07:50;;;;;;;;;;;;;;;;;;5046521;28;19954;-68
2022/09/05 04:10:16;;;;;;;;;;;;;;;;;;5046316;28;19944;-68
2022/09/05 04:12:41;;;;;;;;;;;;;;;;;;5044988;28;19913;-69
2022/09/05 04:15:07;;;;;;;;;;;;;;;;;;5047011;28;19911;-67
2022/09/05 04:17:34;;;;;;;;;;;;;;;;;;5046945;28;19912;-67
2022/09/05 04:20:00;;;;;;;;;;;;;;;;;;5045458;28;19938;-67
2022/09/05 04:22:26;;;;;;;;;;;;;;;;;;5046171;28;19908;-67
2022/09/05 04:24:52;;;;;;;;;;;;;;;;;;5045838;28;19905;-67
2022/09/05 04:27:18;;;;;;;;;;;;;;;;;;5046256;28;20060;-67
2022/09/05 04:29:44;;;;;;;;;;;;;;;;;;5044589;28;19913;-67
2022/09/05 04:32:10;;;;;;;;;;;;;;;;;;5046376;28;19935;-67
2022/09/05 04:34:36;;;;;;;;;;;;;;;;;;5046560;28;19913;-68
2022/09/05 04:37:02;;;;;;;;;;;;;;;;;;5046822;28;19912;-68
2022/09/05 04:39:28;;;;;;;;;;;;;;;;;;5046275;28;19927;-68
2022/09/05 04:41:54;;;;;;;;;;;;;;;;;;5046071;28;20384;-68
2022/09/05 04:44:20;;;;;;;;;;;;;;;;;;5033880;28;20467;-68
2022/09/05 04:46:46;;;;;;;;;;;;;;;;;;5025775;28;20485;-68
2022/09/05 04:49:12;;;;;;;;;;;;;;;;;;5008246;28;19905;-67
2022/09/05 04:51:38;;;;;;;;;;;;;;;;;;5026099;28;19909;-67
2022/09/05 04:54:04;;;;;;;;;;;;;;;;;;5026594;28;20074;-67
2022/09/05 04:56:30;;;;;;;;;;;;;;;;;;5026684;28;19909;-67
2022/09/05 04:58:56;;;;;;;;;;;;;;;;;;5035704;28;20390;-67
2022/09/05 05:01:22;;;;;;;;;;;;;;;;;;5045986;28;19905;-67
2022/09/05 05:03:48;;;;;;;;;;;;;;;;;;5045577;28;19912;-67
2022/09/05 05:06:14;;;;;;;;;;;;;;;;;;5045950;28;20457;-68
2022/09/05 05:08:40;;;;;;;;;;;;;;;;;;5045497;28;19909;-67
2022/09/05 05:11:06;;;;;;;;;;;;;;;;;;5045920;28;20617;-65
2022/09/05 05:13:32;;;;;;;;;;;;;;;;;;5045103;28;19984;-64
2022/09/05 05:15:58;;;;;;;;;;;;;;;;;;5045432;28;19951;-65
2022/09/05 05:18:24;;;;;;;;;;;;;;;;;;5044218;28;19916;-65
2022/09/05 05:20:50;;;;;;;;;;;;;;;;;;5046324;28;19913;-65
2022/09/05 05:23:16;;;;;;;;;;;;;;;;;;5049352;28;20044;-65
2022/09/05 05:25:42;;;;;;;;;;;;;;;;;;5049153;28;19948;-65
2022/09/05 05:28:08;;;;;;;;;;;;;;;;;;5048363;28;19909;-64
2022/09/05 05:30:34;;;;;;;;;;;;;;;;;;5048081;28;19917;-65
2022/09/05 05:33:00;;;;;;;;;;;;;;;;;;5040609;28;19924;-64
2022/09/05 05:35:26;;;;;;;;;;;;;;;;;;5041465;28;19913;-65
2022/09/05 05:37:52;;;;;;;;;;;;;;;;;;5049147;28;19915;-65
2022/09/05 05:40:18;;;;;;;;;;;;;;;;;;5048216;28;19912;-66
2022/09/05 05:42:44;;;;;;;;;;;;;;;;;;5048534;28;19909;-66
2022/09/05 05:45:09;;;;;;;;;;;;;;;;;;5048388;28;19916;-66
2022/09/05 05:47:35;;;;;;;;;;;;;;;;;;5049293;28;20390;-66
2022/09/05 05:50:01;;;;;;;;;;;;;;;;;;5049450;28;20000;-65
2022/09/05 05:52:27;;;;;;;;;;;;;;;;;;5048969;28;19935;-65
2022/09/05 05:54:53;;;;;;;;;;;;;;;;;;5048890;28;19913;-65
2022/09/05 05:57:19;;;;;;;;;;;;;;;;;;5049039;28;19987;-66
2022/09/05 05:59:45;;;;;;;;;;;;;;;;;;5047639;28;20090;-66
2022/09/05 06:02:11;;;;;;;;;;;;;;;;;;5048336;28;19912;-66
2022/09/05 06:04:37;;;;;;;;;;;;;;;;;;5048922;28;19908;-68
2022/09/05 06:07:03;;;;;;;;;;;;;;;;;;5048289;28;20007;-66
2022/09/05 06:09:29;;;;;;;;;;;;;;;;;;5048742;28;20019;-66
2022/09/05 06:11:55;;;;;;;;;;;;;;;;;;5046325;28;19912;-67
2022/09/05 06:14:21;;;;;;;;;;;;;;;;;;5046488;28;19919;-67
2022/09/05 06:16:47;;;;;;;;;;;;;;;;;;5046891;28;19959;-65
2022/09/05 06:19:13;;;;;;;;;;;;;;;;;;5047159;28;20000;-66
2022/09/05 06:21:39;;;;;;;;;;;;;;;;;;5047323;28;19979;-65
2022/09/05 06:24:04;;;;;;;;;;;;;;;;;;5056083;28;19912;-65
2022/09/05 06:26:30;;;;;;;;;;;;;;;;;;5048616;28;19909;-65
2022/09/05 06:28:56;;;;;;;;;;;;;;;;;;5041667;28;19909;-65
2022/09/05 06:31:22;;;;;;;;;;;;;;;;;;5046939;28;19904;-66
2022/09/05 06:33:48;;;;;;;;;;;;;;;;;;5046707;28;19912;-66
2022/09/05 06:36:15;;;;;;;;;;;;;;;;;;5047385;28;19931;-66
2022/09/05 06:38:41;;;;;;;;;;;;;;;;;;5044644;28;19912;-67
2022/09/05 06:41:07;;;;;;;;;;;;;;;;;;5048349;28;20000;-66
2022/09/05 06:43:33;;;;;;;;;;;;;;;;;;5047460;28;20099;-68
2022/09/05 06:45:59;;;;;;;;;;;;;;;;;;5043420;28;19917;-67
2022/09/05 06:48:25;;;;;;;;;;;;;;;;;;5048257;28;20017;-66
2022/09/05 06:50:51;;;;;;;;;;;;;;;;;;5047510;28;20375;-67
2022/09/05 06:53:17;;;;;;;;;;;;;;;;;;5046432;28;19967;-68
2022/09/05 06:55:43;;;;;;;;;;;;;;;;;;5033537;28;19956;-69
2022/09/05 06:58:09;;;;;;;;;;;;;;;;;;5028457;28;19987;-65
2022/09/05 07:00:36;;;;;;;;;;;;;;;;;;5028646;28;19916;-66
2022/09/05 07:03:02;;;;;;;;;;;;;;;;;;5029770;28;19958;-68
2022/09/05 07:05:28;;;;;;;;;;;;;;;;;;5045485;28;19912;-67
2022/09/05 07:07:54;;;;;;;;;;;;;;;;;;5043184;28;19909;-64
2022/09/05 07:10:20;;;;;;;;;;;;;;;;;;5043495;28;19913;-65
2022/09/05 07:12:46;;;;;;;;;;;;;;;;;;5047551;28;19916;-74
2022/09/05 07:15:12;;;;;;;;;;;;;;;;;;5046828;28;19911;-67
2022/09/05 07:17:38;;;;;;;;;;;;;;;;;;5047832;28;19912;-67
2022/09/05 07:20:04;;;;;;;;;;;;;;;;;;5045747;28;19905;-67
2022/09/05 07:22:32;;;;;;;;;;;;;;;;;;5046548;28;19908;-68
2022/09/05 07:24:57;;;;;;;;;;;;;;;;;;5041035;28;19920;-67
2022/09/05 07:27:23;;;;;;;;;;;;;;;;;;5041854;28;19908;-67
2022/09/05 07:29:49;;;;;;;;;;;;;;;;;;5044534;28;19909;-69
2022/09/05 07:32:15;;;;;;;;;;;;;;;;;;5046657;28;19920;-68
2022/09/05 07:34:41;;;;;;;;;;;;;;;;;;5044672;28;20399;-66
2022/09/05 07:37:07;;;;;;;;;;;;;;;;;;5046949;28;20046;-68
2022/09/05 07:39:33;;;;;;;;;;;;;;;;;;5043343;28;21741;-67
2022/09/05 07:41:59;;;;;;;;;;;;;;;;;;5046104;28;20355;-67
2022/09/05 07:44:26;;;;;;;;;;;;;;;;;;5045613;28;19912;-66
2022/09/05 07:46:55;;;;;;;;;;;;;;;;;;5042170;28;21428;-67
2022/09/05 07:49:22;;;;;;;;;;;;;;;;;;5043008;28;19913;-68
2022/09/05 07:51:48;;;;;;;;;;;;;;;;;;5042017;28;19924;-68
2022/09/05 07:54:17;;;;;;;;;;;;;;;;;;5040881;28;20350;-67
2022/09/05 07:56:43;;;;;;;;;;;;;;;;;;5045085;28;20396;-69
2022/09/05 07:59:10;;;;;;;;;;;;;;;;;;5041638;28;20346;-67
2022/09/05 08:01:36;;;;;;;;;;;;;;;;;;5047635;28;19917;-67
2022/09/05 08:04:01;;;;;;;;;;;;;;;;;;5046306;28;19939;-68
2022/09/05 08:06:27;;;;;;;;;;;;;;;;;;5047184;28;19917;-66
2022/09/05 08:08:53;;;;;;;;;;;;;;;;;;5042839;28;19923;-70
2022/09/05 08:11:20;;;;;;;;;;;;;;;;;;5043193;28;20441;-68
2022/09/05 08:13:46;;;;;;;;;;;;;;;;;;5042540;28;19920;-68
2022/09/05 08:16:12;;;;;;;;;;;;;;;;;;5044984;28;20373;-66
2022/09/05 08:18:38;;;;;;;;;;;;;;;;;;5045940;28;19913;-67
2022/09/05 08:21:05;;;;;;;;;;;;;;;;;;5045828;28;19909;-67
2022/09/05 08:23:31;;;;;;;;;;;;;;;;;;5045518;28;19916;-67
2022/09/05 08:25:57;;;;;;;;;;;;;;;;;;5044712;28;19913;-66
2022/09/05 08:28:22;;;;;;;;;;;;;;;;;;5044849;28;20313;-66
2022/09/05 08:30:48;;;;;;;;;;;;;;;;;;5044495;28;19909;-65
2022/09/05 08:33:15;;;;;;;;;;;;;;;;;;5045487;28;19920;-68
2022/09/05 08:35:42;;;;;;;;;;;;;;;;;;5044618;28;19909;-65
2022/09/05 08:38:08;;;;;;;;;;;;;;;;;;5046065;28;20387;-71
2022/09/05 08:40:34;;;;;;;;;;;;;;;;;;5043896;28;19917;-68
2022/09/05 08:43:00;;;;;;;;;;;;;;;;;;5044346;28;20005;-68
2022/09/05 08:45:27;;;;;;;;;;;;;;;;;;5042970;28;20055;-67
2022/09/05 08:47:53;;;;;;;;;;;;;;;;;;5044444;28;19928;-70
2022/09/05 08:50:19;;;;;;;;;;;;;;;;;;5044388;28;19909;-67
2022/09/05 08:52:45;;;;;;;;;;;;;;;;;;5041407;28;19916;-68
2022/09/05 08:55:11;;;;;;;;;;;;;;;;;;5048748;28;20453;-66
2022/09/05 08:57:37;;;;;;;;;;;;;;;;;;5050488;28;19917;-69
2022/09/05 09:00:05;;;;;;;;;;;;;;;;;;5049407;28;19914;-69
2022/09/05 09:02:32;;;;;;;;;;;;;;;;;;5050449;28;20592;-71
2022/09/05 09:05:01;;;;;;;;;;;;;;;;;;5045496;28;19916;-67
2022/09/05 09:07:27;;;;;;;;;;;;;;;;;;5051054;28;19913;-71
2022/09/05 09:09:53;;;;;;;;;;;;;;;;;;5048954;28;19920;-68
2022/09/05 09:12:19;;;;;;;;;;;;;;;;;;5050772;28;19909;-66
2022/09/05 09:14:45;;;;;;;;;;;;;;;;;;5048822;28;19909;-70
2022/09/05 09:17:11;;;;;;;;;;;;;;;;;;5050919;28;19975;-68
2022/09/05 09:19:37;;;;;;;;;;;;;;;;;;5049576;28;20000;-66
2022/09/05 09:22:03;;;;;;;;;;;;;;;;;;5050507;28;20007;-67
2022/09/05 09:24:29;;;;;;;;;;;;;;;;;;5044407;28;19917;-66
2022/09/05 09:26:55;;;;;;;;;;;;;;;;;;5050132;28;19941;-65
2022/09/05 09:29:22;;;;;;;;;;;;;;;;;;5048251;28;19913;-66
2022/09/05 09:31:48;;;;;;;;;;;;;;;;;;5049062;28;19974;-71
2022/09/05 09:34:14;;;;;;;;;;;;;;;;;;5047713;28;20435;-68
2022/09/05 09:36:40;;;;;;;;;;;;;;;;;;5048672;28;20003;-68
2022/09/05 09:39:06;;;;;;;;;;;;;;;;;;5048418;28;19951;-66
2022/09/05 09:41:32;;;;;;;;;;;;;;;;;;5047201;28;19917;-67
2022/09/05 09:43:58;;;;;;;;;;;;;;;;;;5046150;28;19920;-67
2022/09/05 09:46:26;;;;;;;;;;;;;;;;;;5048355;28;19919;-68
2022/09/05 09:48:51;;;;;;;;;;;;;;;;;;5045847;28;19916;-68
2022/09/05 09:51:18;;;;;;;;;;;;;;;;;;5045529;28;20392;-68
2022/09/05 09:53:44;;;;;;;;;;;;;;;;;;5047262;28;19921;-69
2022/09/05 09:56:10;;;;;;;;;;;;;;;;;;5047636;28;19915;-65
2022/09/05 09:58:36;;;;;;;;;;;;;;;;;;5048493;28;19919;-66
2022/09/05 10:01:01;;;;;;;;;;;;;;;;;;5045017;28;19916;-68
2022/09/05 10:03:27;;;;;;;;;;;;;;;;;;5048250;28;19921;-75
2022/09/05 10:05:55;;;;;;;;;;;;;;;;;;5046556;28;20345;-67
2022/09/05 10:08:21;;;;;;;;;;;;;;;;;;5044317;28;19920;-66
2022/09/05 10:10:47;;;;;;;;;;;;;;;;;;5046663;28;19913;-68
2022/09/05 10:13:13;;;;;;;;;;;;;;;;;;5047700;28;19920;-66
2022/09/05 10:15:39;;;;;;;;;;;;;;;;;;5048881;28;20051;-66
2022/09/05 10:18:05;;;;;;;;;;;;;;;;;;5049707;28;19916;-65
2022/09/05 10:20:30;;;;;;;;;;;;;;;;;;5048068;28;19913;-66
2022/09/05 10:22:56;;;;;;;;;;;;;;;;;;5048942;28;19913;-69
2022/09/05 10:25:22;;;;;;;;;;;;;;;;;;5043114;28;19964;-67
2022/09/05 10:27:48;;;;;;;;;;;;;;;;;;5043126;28;19962;-69
2022/09/05 10:30:14;;;;;;;;;;;;;;;;;;5048064;28;19908;-66
2022/09/05 10:32:40;;;;;;;;;;;;;;;;;;5048821;28;19920;-66
2022/09/05 10:35:06;;;;;;;;;;;;;;;;;;5048544;28;19971;-66
2022/09/05 10:37:32;;;;;;;;;;;;;;;;;;5049141;28;19916;-65
2022/09/05 10:39:58;;;;;;;;;;;;;;;;;;5047453;28;19924;-76
2022/09/05 10:42:24;;;;;;;;;;;;;;;;;;5048301;28;19909;-69
2022/09/05 10:44:50;;;;;;;;;;;;;;;;;;5048096;28;19913;-67
2022/09/05 10:47:16;;;;;;;;;;;;;;;;;;5047986;28;19995;-67
2022/09/05 10:49:42;;;;;;;;;;;;;;;;;;5046320;28;19917;-65
2022/09/05 10:52:08;;;;;;;;;;;;;;;;;;5046817;28;19924;-65
2022/09/05 10:54:52;;;;;;;2.45;1.15;;;;;;;;;;5046047;28;20788;-64
2022/09/05 10:57:25;;;;;;;1.30;0.80;;;;;;;;;;5046876;28;20041;-65
2022/09/05 11:00:10;;;;;;;1.88;1.00;;;;;;;;;;5045676;28;20056;-65
2022/09/05 11:02:45;;;;;;;1.80;0.95;;;;;;;;;;5047626;28;20056;-63
2022/09/05 11:05:12;;;;;;;1.55;1.10;;;;;;;;;;5045863;28;20021;-67
2022/09/05 11:07:41;;;;;;;3.72;0.98;;;;;;;;;;5046661;28;20047;-62
2022/09/05 11:10:13;;;;;;;3.42;1.30;;;;;;;;;;5045944;28;20049;-63
2022/09/05 11:12:47;;;;;;;2.90;1.25;;;;;;;;;;5046033;28;20111;-66
2022/09/05 11:15:42;;;;;;;2.45;0.90;;;;;;;;;;5045787;28;20025;-67
2022/09/05 11:18:09;;;;;;;3.58;1.38;;;;;;;;;;4974095;28;20042;-63
2022/09/05 11:20:43;;;;;;;5.13;1.08;;;;;;;;;;5046137;28;20024;-63
2022/09/05 11:23:11;;;;;;;3.40;1.40;;;;;;;;;;5045716;28;20106;-63
2022/09/05 11:25:38;;;;;;;3.30;1.40;;;;;;;;;;5046044;28;20025;-63
2022/09/05 11:28:14;;;;;;;3.70;1.50;;;;;;;;;;5046211;28;20031;-67
2022/09/05 11:30:42;;;;;;;3.30;1.38;;;;;;;;;;5045077;28;20151;-63
2022/09/05 11:33:08;;;;;;;3.88;1.30;;;;;;;;;;5046226;28;20029;-64
2022/09/05 11:35:44;;;;;;;2.95;1.08;;;;;;;;;;5046244;28;20013;-65
2022/09/05 11:38:13;;;;;;;;;;;;;;;;;;5045735;28;20493;-73
2022/09/05 11:40:39;;;;;;;;;;;;;;;;;;5045082;28;20016;-65
2022/09/05 11:43:05;;;;;;;;;;;;;;;;;;5046423;28;20003;-66
2022/09/05 11:45:31;;;;;;;;;;;;;;;;;;5045550;28;19905;-67
2022/09/05 11:47:57;;;;;;;;;;;;;;;;;;5045811;28;19915;-68
2022/09/05 11:50:24;;;;;;;;;;;;;;;;;;5045263;28;19913;-66
2022/09/05 11:52:51;;;;;;;;;;;;;;;;;;5045220;28;19913;-68
2022/09/05 11:55:18;;;;;;;;;;;;;;;;;;5045114;28;19904;-65
2022/09/05 11:57:44;;;;;;;;;;;;;;;;;;5045260;28;20403;-68
2022/09/05 12:00:11;;;;;;;;;;;;;;;;;;5045265;28;19904;-65
2022/09/05 12:02:37;;;;;;;;;;;;;;;;;;5046068;28;19912;-69
2022/09/05 12:05:03;;;;;;;;;;;;;;;;;;5045055;28;19913;-69
2022/09/05 12:07:29;;;;;;;;;;;;;;;;;;5045180;28;19974;-71
2022/09/05 12:09:56;;;;;;;;;;;;;;;;;;5044845;28;19905;-68
2022/09/05 12:12:26;;;;;;;;;;;;;;;;;;5045418;28;19905;-67
2022/09/05 12:14:52;;;;;;;;;;;;;;;;;;5045558;28;19988;-70
2022/09/05 12:17:18;;;;;;;;;;;;;;;;;;5045459;28;19963;-71
2022/09/05 12:19:46;;;;;;;;;;;;;;;;;;5044805;28;19908;-69
2022/09/05 12:22:12;;;;;;;;;;;;;;;;;;5045179;28;19928;-67
2022/09/05 12:24:37;;;;;;;;;;;;;;;;;;5045703;28;20295;-68
2022/09/05 12:27:03;;;;;;;;;;;;;;;;;;5044959;28;20454;-70
2022/09/05 12:29:29;;;;;;;;;;;;;;;;;;5046978;28;19915;-67
2022/09/05 12:31:59;;;;;;;;;;;;;;;;;;5049281;28;20422;-68
2022/09/05 12:34:25;;;;;;;;;;;;;;;;;;5049316;28;19912;-66
2022/09/05 12:36:51;;;;;;;;;;;;;;;;;;5048871;28;19905;-68
2022/09/05 12:39:17;;;;;;;;;;;;;;;;;;5049206;28;19962;-70
2022/09/05 12:41:44;;;;;;;;;;;;;;;;;;5048998;28;20429;-69
2022/09/05 12:44:10;;;;;;;;;;;;;;;;;;5049291;28;19917;-68
2022/09/05 12:46:36;;;;;;;;;;;;;;;;;;5049665;28;19904;-69
2022/09/05 12:49:02;;;;;;;;;;;;;;;;;;5048903;28;19912;-67
2022/09/05 12:51:30;;;;;;;;;;;;;;;;;;5048729;28;19909;-66
2022/09/05 12:53:56;;;;;;;;;;;;;;;;;;5048852;28;19931;-68
2022/09/05 12:56:22;;;;;;;;;;;;;;;;;;5048946;28;19905;-68
2022/09/05 12:58:48;;;;;;;;;;;;;;;;;;5048669;28;19912;-67
2022/09/05 13:01:17;;;;;;;;;;;;;;;;;;5048734;28;19909;-69
2022/09/05 13:03:43;;;;;;;;;;;;;;;;;;5048589;28;19915;-71
2022/09/05 13:06:09;;;;;;;;;;;;;;;;;;5048605;28;19908;-68
2022/09/05 13:08:35;;;;;;;;;;;;;;;;;;5049120;28;19990;-67
2022/09/05 13:11:02;;;;;;;;;;;;;;;;;;5048463;28;19948;-67
2022/09/05 13:13:30;;;;;;;;;;;;;;;;;;5048666;28;19919;-73
2022/09/05 13:15:56;;;;;;;;;;;;;;;;;;5048392;28;19904;-67
2022/09/05 13:18:22;;;;;;;;;;;;;;;;;;5048608;28;19905;-74
2022/09/05 13:20:50;;;;;;;;;;;;;;;;;;5048993;28;19991;-70
2022/09/05 13:23:16;;;;;;;;;;;;;;;;;;5049813;28;19904;-67
2022/09/05 13:25:42;;;;;;;;;;;;;;;;;;5048715;28;20005;-65
2022/09/05 13:28:07;;;;;;;;;;;;;;;;;;5048922;28;19952;-69
2022/09/05 13:30:34;;;;;;;;;;;;;;;;;;5046553;28;19909;-67
2022/09/05 13:33:01;;;;;;;;;;;;;;;;;;5047035;28;19908;-66
2022/09/05 13:35:27;;;;;;;;;;;;;;;;;;5046341;28;19913;-68
2022/09/05 13:37:53;;;;;;;;;;;;;;;;;;5047647;28;20360;-65
2022/09/05 13:40:19;;;;;;;;;;;;;;;;;;5048445;28;19991;-68
2022/09/05 13:42:44;;;;;;;;;;;;;;;;;;5049083;28;19919;-67
2022/09/05 13:45:11;;;;;;;;;;;;;;;;;;5048770;28;19988;-74
2022/09/05 13:47:36;;;;;;;;;;;;;;;;;;5048006;28;19923;-67
2022/09/05 13:50:02;;;;;;;;;;;;;;;;;;5047342;28;19905;-65
2022/09/05 13:52:28;;;;;;;;;;;;;;;;;;5047987;28;20114;-68
2022/09/05 13:54:54;;;;;;;;;;;;;;;;;;5047271;28;20366;-68
2022/09/05 13:57:20;;;;;;;;;;;;;;;;;;5048031;28;19904;-69
2022/09/05 13:59:46;;;;;;;;;;;;;;;;;;5047372;28;19912;-69
2022/09/05 14:02:12;;;;;;;;;;;;;;;;;;5046381;28;19940;-65
2022/09/05 14:04:38;;;;;;;;;;;;;;;;;;5048206;28;20398;-65
2022/09/05 14:07:04;;;;;;;;;;;;;;;;;;5047869;28;19908;-68
2022/09/05 14:09:32;;;;;;;;;;;;;;;;;;5044419;28;19948;-67
2022/09/05 14:11:58;;;;;;;;;;;;;;;;;;5046629;28;19904;-67
2022/09/05 14:14:24;;;;;;;;;;;;;;;;;;5036557;28;20391;-70
2022/09/05 14:16:51;;;;;;;;;;;;;;;;;;5045931;28;19920;-67
2022/09/05 14:22:21;;;;;;;;;;;;;;;;;;5006406;28;19905;-66
2022/09/05 14:24:48;;;;;;;;;;;;;;;;;;5004873;28;20281;-66
2022/09/05 14:27:14;;;;;;;;;;;;;;;;;;5026117;28;19959;-70
2022/09/05 14:29:40;;;;;;;;;;;;;;;;;;5047230;28;19912;-65
2022/09/05 14:32:06;;;;;;;;;;;;;;;;;;5048271;28;19904;-68
2022/09/05 14:34:33;;;;;;;;;;;;;;;;;;5047063;28;19920;-68
2022/09/05 14:36:59;;;;;;;;;;;;;;;;;;5046450;28;20435;-67
2022/09/05 14:39:25;;;;;;;;;;;;;;;;;;5048170;28;19955;-72
2022/09/05 14:41:51;;;;;;;;;;;;;;;;;;5046536;28;19932;-69
2022/09/05 14:44:17;;;;;;;;;;;;;;;;;;5047965;28;19920;-67
2022/09/05 14:46:44;;;;;;;;;;;;;;;;;;5048738;28;19950;-70
2022/09/05 14:49:10;;;;;;;;;;;;;;;;;;5048385;28;19904;-66
2022/09/05 14:51:36;;;;;;;;;;;;;;;;;;5044833;28;19908;-67
2022/09/05 14:54:02;;;;;;;;;;;;;;;;;;5044318;28;19917;-68
2022/09/05 14:56:28;;;;;;;;;;;;;;;;;;5046650;28;19915;-68
2022/09/05 14:58:56;;;;;;;;;;;;;;;;;;5042639;28;20592;-66
2022/09/05 15:01:22;;;;;;;;;;;;;;;;;;5046757;28;20440;-69
2022/09/05 15:03:48;;;;;;;;;;;;;;;;;;5046567;28;19909;-65
2022/09/05 15:06:14;;;;;;;;;;;;;;;;;;5048042;28;19915;-67
2022/09/05 15:08:40;;;;;;;;;;;;;;;;;;5048189;28;19909;-69
2022/09/05 15:11:09;;;;;;;;;;;;;;;;;;5046872;28;19915;-68
2022/09/05 15:13:37;;;;;;;;;;;;;;;;;;5047191;28;20076;-67
2022/09/05 15:16:05;;;;;;;;;;;;;;;;;;5047634;28;19916;-68
2022/09/05 15:18:31;;;;;;;;;;;;;;;;;;5047728;28;19909;-69
2022/09/05 15:20:57;;;;;;;;;;;;;;;;;;5046852;28;20277;-71
2022/09/05 15:23:23;;;;;;;;;;;;;;;;;;5047409;28;19905;-66
2022/09/05 15:25:49;;;;;;;;;;;;;;;;;;5047084;28;19911;-66
2022/09/05 15:28:15;;;;;;;;;;;;;;;;;;5047331;28;20384;-65
2022/09/05 15:30:41;;;;;;;;;;;;;;;;;;5047376;28;19920;-65
2022/09/05 15:33:07;;;;;;;;;;;;;;;;;;5046941;28;20417;-66
2022/09/05 15:35:33;;;;;;;;;;;;;;;;;;5046703;28;19913;-64
2022/09/05 15:37:59;;;;;;;;;;;;;;;;;;5046508;28;19966;-65
2022/09/05 15:40:26;;;;;;;;;;;;;;;;;;5046715;28;19916;-66
2022/09/05 15:42:52;;;;;;;;;;;;;;;;;;5044108;28;19956;-68
2022/09/05 15:45:18;;;;;;;;;;;;;;;;;;5047048;28;19940;-67
2022/09/05 15:47:45;;;;;;;;;;;;;;;;;;5046869;28;19960;-69
2022/09/05 15:50:12;;;;;;;;;;;;;;;;;;5047466;28;19909;-68
2022/09/05 15:52:38;;;;;;;;;;;;;;;;;;5045550;28;20776;-66
2022/09/05 15:55:05;;;;;;;;;;;;;;;;;;5044169;28;20476;-67
2022/09/05 15:57:31;;;;;;;;;;;;;;;;;;5046554;28;19909;-66
2022/09/05 15:59:57;;;;;;;;;;;;;;;;;;5046211;28;19919;-70
2022/09/05 16:02:23;;;;;;;;;;;;;;;;;;5047183;28;19915;-65
2022/09/05 16:04:50;;;;;;;;;;;;;;;;;;5046069;28;19904;-66
2022/09/05 16:07:15;;;;;;;;;;;;;;;;;;5045108;28;19913;-66
2022/09/05 16:09:41;;;;;;;;;;;;;;;;;;5046271;28;20319;-65
2022/09/05 16:12:07;;;;;;;;;;;;;;;;;;5046296;28;19931;-67
2022/09/05 16:14:35;;;;;;;;;;;;;;;;;;5046059;28;19919;-65
2022/09/05 16:17:01;;;;;;;;;;;;;;;;;;5046801;28;20551;-67
2022/09/05 16:19:27;;;;;;;;;;;;;;;;;;5042297;28;20503;-65
2022/09/05 16:21:53;;;;;;;;;;;;;;;;;;5047428;28;19987;-67
2022/09/05 16:24:20;;;;;;;;;;;;;;;;;;5045843;28;19905;-69
2022/09/05 16:26:46;;;;;;;;;;;;;;;;;;5046896;28;19908;-67
2022/09/05 16:29:12;;;;;;;;;;;;;;;;;;5041002;28;20461;-66
2022/09/05 16:31:38;;;;;;;;;;;;;;;;;;5047437;28;19908;-64
2022/09/05 16:34:04;;;;;;;;;;;;;;;;;;5042365;28;19916;-66
2022/09/05 16:36:30;;;;;;;;;;;;;;;;;;5042975;28;19935;-66